sensor_id;sensor_type;location;lat;lon;timestamp;pressure;altitude;pressure_sealevel;temperature;humidity
35151;BME280;55720;51.972;4.624;2022-08-02T00:00:52;101616.75;;;16.33;100.00
35151;BME280;55720;51.972;4.624;2022-08-02T00:03:17;101608.91;;;16.35;100.00
35151;BME280;55720;51.972;4.624;2022-08-02T00:05:43;101613.47;;;16.43;100.00
35151;BME280;55720;51.972;4.624;2022-08-02T00:08:09;101606.78;;;16.44;100.00
35151;BME280;55720;51.972;4.624;2022-08-02T00:10:34;101611.31;;;16.36;100.00
35151;BME280;55720;51.972;4.624;2022-08-02T00:12:59;101603.25;;;16.31;100.00
35151;BME280;55720;51.972;4.624;2022-08-02T00:15:25;101587.94;;;16.21;100.00
35151;BME280;55720;51.972;4.624;2022-08-02T00:17:50;101583.94;;;16.07;100.00
35151;BME280;55720;51.972;4.624;2022-08-02T00:20:16;101582.56;;;16.01;100.00
35151;BME280;55720;51.972;4.624;2022-08-02T00:22:41;101584.44;;;15.97;100.00
35151;BME280;55720;51.972;4.624;2022-08-02T00:25:07;101587.34;;;15.88;100.00
35151;BME280;55720;51.972;4.624;2022-08-02T00:27:32;101574.91;;;15.82;100.00
35151;BME280;55720;51.972;4.624;2022-08-02T00:29:58;101579.50;;;15.78;100.00
35151;BME280;55720;51.972;4.624;2022-08-02T00:32:23;101580.91;;;15.72;100.00
35151;BME280;55720;51.972;4.624;2022-08-02T00:34:49;101581.16;;;15.67;100.00
35151;BME280;55720;51.972;4.624;2022-08-02T00:37:15;101580.34;;;15.66;100.00
35151;BME280;55720;51.972;4.624;2022-08-02T00:39:41;101574.34;;;15.64;100.00
35151;BME280;55720;51.972;4.624;2022-08-02T00:42:07;101571.03;;;15.59;100.00
35151;BME280;55720;51.972;4.624;2022-08-02T00:44:33;101572.41;;;15.65;100.00
35151;BME280;55720;51.972;4.624;2022-08-02T00:46:59;101577.56;;;15.66;100.00
35151;BME280;55720;51.972;4.624;2022-08-02T00:49:24;101574.59;;;15.59;100.00
35151;BME280;55720;51.972;4.624;2022-08-02T00:51:49;101563.88;;;15.58;100.00
35151;BME280;55720;51.972;4.624;2022-08-02T00:54:15;101559.50;;;15.57;100.00
35151;BME280;55720;51.972;4.624;2022-08-02T00:56:40;101553.41;;;15.51;100.00
35151;BME280;55720;51.972;4.624;2022-08-02T00:59:06;101549.81;;;15.51;100.00
35151;BME280;55720;51.972;4.624;2022-08-02T01:01:31;101549.00;;;15.50;100.00
35151;BME280;55720;51.972;4.624;2022-08-02T01:04:04;101542.53;;;15.46;100.00
35151;BME280;55720;51.972;4.624;2022-08-02T01:06:30;101534.81;;;15.40;100.00
35151;BME280;55720;51.972;4.624;2022-08-02T01:08:58;101526.03;;;15.38;100.00
35151;BME280;55720;51.972;4.624;2022-08-02T01:11:23;101528.81;;;15.38;100.00
35151;BME280;55720;51.972;4.624;2022-08-02T01:13:49;101523.28;;;15.38;100.00
35151;BME280;55720;51.972;4.624;2022-08-02T01:16:18;101518.00;;;15.33;100.00
35151;BME280;55720;51.972;4.624;2022-08-02T01:18:47;101523.06;;;15.31;100.00
35151;BME280;55720;51.972;4.624;2022-08-02T01:21:47;101518.22;;;15.27;100.00
35151;BME280;55720;51.972;4.624;2022-08-02T01:29:55;101533.34;;;15.30;100.00
35151;BME280;55720;51.972;4.624;2022-08-02T01:32:24;101539.09;;;15.25;100.00
35151;BME280;55720;51.972;4.624;2022-08-02T01:37:43;101557.97;;;15.23;100.00
35151;BME280;55720;51.972;4.624;2022-08-02T01:40:17;101561.91;;;15.10;100.00
35151;BME280;55720;51.972;4.624;2022-08-02T01:42:47;101565.69;;;15.05;100.00
35151;BME280;55720;51.972;4.624;2022-08-02T01:45:15;101560.41;;;15.00;100.00
35151;BME280;55720;51.972;4.624;2022-08-02T01:47:43;101565.84;;;14.97;100.00
35151;BME280;55720;51.972;4.624;2022-08-02T01:50:13;101562.03;;;14.89;100.00
35151;BME280;55720;51.972;4.624;2022-08-02T01:52:48;101549.22;;;14.85;100.00
35151;BME280;55720;51.972;4.624;2022-08-02T01:55:20;101554.19;;;14.79;100.00
35151;BME280;55720;51.972;4.624;2022-08-02T01:57:53;101541.94;;;14.80;100.00
35151;BME280;55720;51.972;4.624;2022-08-02T02:00:22;101544.38;;;14.82;100.00
35151;BME280;55720;51.972;4.624;2022-08-02T02:02:48;101539.41;;;14.87;100.00
35151;BME280;55720;51.972;4.624;2022-08-02T02:05:18;101542.78;;;14.93;100.00
35151;BME280;55720;51.972;4.624;2022-08-02T02:07:46;101547.16;;;14.94;100.00
35151;BME280;55720;51.972;4.624;2022-08-02T02:10:16;101549.34;;;15.00;100.00
35151;BME280;55720;51.972;4.624;2022-08-02T02:12:45;101564.56;;;15.06;100.00
35151;BME280;55720;51.972;4.624;2022-08-02T02:15:12;101562.28;;;15.08;100.00
35151;BME280;55720;51.972;4.624;2022-08-02T02:17:41;101559.50;;;15.08;100.00
35151;BME280;55720;51.972;4.624;2022-08-02T02:20:09;101561.22;;;15.13;100.00
35151;BME280;55720;51.972;4.624;2022-08-02T02:22:37;101558.59;;;15.04;100.00
35151;BME280;55720;51.972;4.624;2022-08-02T02:25:03;101561.22;;;15.01;100.00
35151;BME280;55720;51.972;4.624;2022-08-02T02:27:29;101572.28;;;15.01;100.00
35151;BME280;55720;51.972;4.624;2022-08-02T02:29:55;101571.22;;;15.05;100.00
35151;BME280;55720;51.972;4.624;2022-08-02T02:32:21;101584.25;;;15.05;100.00
35151;BME280;55720;51.972;4.624;2022-08-02T02:34:49;101585.28;;;15.12;100.00
35151;BME280;55720;51.972;4.624;2022-08-02T02:37:19;101594.28;;;15.09;100.00
35151;BME280;55720;51.972;4.624;2022-08-02T02:39:46;101591.06;;;15.07;100.00
35151;BME280;55720;51.972;4.624;2022-08-02T02:42:15;101597.63;;;15.03;100.00
35151;BME280;55720;51.972;4.624;2022-08-02T02:44:41;101583.81;;;15.03;100.00
35151;BME280;55720;51.972;4.624;2022-08-02T02:47:09;101588.28;;;14.95;100.00
35151;BME280;55720;51.972;4.624;2022-08-02T02:49:36;101595.78;;;14.95;100.00
35151;BME280;55720;51.972;4.624;2022-08-02T02:52:04;101593.13;;;14.98;100.00
35151;BME280;55720;51.972;4.624;2022-08-02T02:54:32;101600.28;;;14.99;100.00
35151;BME280;55720;51.972;4.624;2022-08-02T02:56:59;101593.81;;;14.95;100.00
35151;BME280;55720;51.972;4.624;2022-08-02T02:59:25;101595.88;;;14.86;100.00
35151;BME280;55720;51.972;4.624;2022-08-02T03:01:52;101598.88;;;14.81;100.00
35151;BME280;55720;51.972;4.624;2022-08-02T03:04:19;101609.91;;;14.81;100.00
35151;BME280;55720;51.972;4.624;2022-08-02T03:06:45;101593.13;;;14.86;100.00
35151;BME280;55720;51.972;4.624;2022-08-02T03:09:11;101598.97;;;14.85;100.00
35151;BME280;55720;51.972;4.624;2022-08-02T03:11:37;101598.06;;;14.81;100.00
35151;BME280;55720;51.972;4.624;2022-08-02T03:14:04;101606.13;;;14.86;100.00
35151;BME280;55720;51.972;4.624;2022-08-02T03:16:32;101599.78;;;14.85;100.00
35151;BME280;55720;51.972;4.624;2022-08-02T03:19:00;101598.41;;;14.79;100.00
35151;BME280;55720;51.972;4.624;2022-08-02T03:21:27;101582.59;;;14.79;100.00
35151;BME280;55720;51.972;4.624;2022-08-02T03:23:52;101575.72;;;14.86;100.00
35151;BME280;55720;51.972;4.624;2022-08-02T03:26:18;101573.28;;;14.84;100.00
35151;BME280;55720;51.972;4.624;2022-08-02T03:28:43;101570.41;;;14.81;100.00
35151;BME280;55720;51.972;4.624;2022-08-02T03:31:08;101558.22;;;14.82;100.00
35151;BME280;55720;51.972;4.624;2022-08-02T03:33:35;101554.97;;;14.79;100.00
35151;BME280;55720;51.972;4.624;2022-08-02T03:36:05;101558.13;;;14.90;100.00
35151;BME280;55720;51.972;4.624;2022-08-02T03:38:33;101549.22;;;14.85;100.00
35151;BME280;55720;51.972;4.624;2022-08-02T03:41:01;101555.44;;;14.82;100.00
35151;BME280;55720;51.972;4.624;2022-08-02T03:43:27;101571.31;;;14.72;100.00
35151;BME280;55720;51.972;4.624;2022-08-02T03:45:54;101583.75;;;14.66;100.00
35151;BME280;55720;51.972;4.624;2022-08-02T03:48:21;101582.47;;;14.64;100.00
35151;BME280;55720;51.972;4.624;2022-08-02T03:50:47;101576.22;;;14.55;100.00
35151;BME280;55720;51.972;4.624;2022-08-02T03:53:15;101563.31;;;14.47;100.00
35151;BME280;55720;51.972;4.624;2022-08-02T03:55:41;101553.06;;;14.47;100.00
35151;BME280;55720;51.972;4.624;2022-08-02T03:58:06;101542.22;;;14.42;100.00
35151;BME280;55720;51.972;4.624;2022-08-02T04:00:32;101531.31;;;14.46;100.00
35151;BME280;55720;51.972;4.624;2022-08-02T04:02:58;101540.16;;;14.39;100.00
35151;BME280;55720;51.972;4.624;2022-08-02T04:05:23;101535.66;;;14.35;100.00
35151;BME280;55720;51.972;4.624;2022-08-02T04:07:49;101532.06;;;14.34;100.00
35151;BME280;55720;51.972;4.624;2022-08-02T04:10:15;101542.72;;;14.23;100.00
35151;BME280;55720;51.972;4.624;2022-08-02T04:12:41;101535.44;;;14.19;100.00
35151;BME280;55720;51.972;4.624;2022-08-02T04:15:08;101530.28;;;14.17;100.00
35151;BME280;55720;51.972;4.624;2022-08-02T04:17:38;101529.09;;;14.18;100.00
35151;BME280;55720;51.972;4.624;2022-08-02T04:20:09;101511.38;;;14.19;100.00
35151;BME280;55720;51.972;4.624;2022-08-02T04:22:40;101514.16;;;14.19;100.00
35151;BME280;55720;51.972;4.624;2022-08-02T04:25:10;101515.97;;;14.15;100.00
35151;BME280;55720;51.972;4.624;2022-08-02T04:27:36;101514.22;;;14.11;100.00
35151;BME280;55720;51.972;4.624;2022-08-02T04:30:03;101519.63;;;14.07;100.00
35151;BME280;55720;51.972;4.624;2022-08-02T04:32:30;101510.81;;;14.14;100.00
35151;BME280;55720;51.972;4.624;2022-08-02T04:34:56;101515.66;;;14.17;100.00
35151;BME280;55720;51.972;4.624;2022-08-02T04:37:21;101504.16;;;14.27;100.00
35151;BME280;55720;51.972;4.624;2022-08-02T04:39:47;101507.00;;;14.39;100.00
35151;BME280;55720;51.972;4.624;2022-08-02T04:42:22;101495.94;;;14.51;100.00
35151;BME280;55720;51.972;4.624;2022-08-02T04:44:49;101487.78;;;14.55;100.00
35151;BME280;55720;51.972;4.624;2022-08-02T04:47:14;101480.66;;;14.66;100.00
35151;BME280;55720;51.972;4.624;2022-08-02T04:49:40;101473.06;;;15.11;100.00
35151;BME280;55720;51.972;4.624;2022-08-02T04:52:05;101463.28;;;16.68;100.00
35151;BME280;55720;51.972;4.624;2022-08-02T04:54:31;101492.13;;;18.03;100.00
35151;BME280;55720;51.972;4.624;2022-08-02T04:56:56;101541.69;;;19.57;100.00
35151;BME280;55720;51.972;4.624;2022-08-02T04:59:21;101644.22;;;20.60;100.00
35151;BME280;55720;51.972;4.624;2022-08-02T05:01:47;101747.88;;;19.83;100.00
35151;BME280;55720;51.972;4.624;2022-08-02T05:04:12;101771.06;;;19.03;100.00
35151;BME280;55720;51.972;4.624;2022-08-02T05:06:37;101772.47;;;18.40;100.00
35151;BME280;55720;51.972;4.624;2022-08-02T05:09:04;101766.06;;;18.04;100.00
35151;BME280;55720;51.972;4.624;2022-08-02T05:11:29;101764.56;;;17.76;100.00
35151;BME280;55720;51.972;4.624;2022-08-02T05:13:55;101761.28;;;17.42;100.00
35151;BME280;55720;51.972;4.624;2022-08-02T05:16:20;101764.59;;;17.32;100.00
35151;BME280;55720;51.972;4.624;2022-08-02T05:18:45;101772.81;;;17.72;100.00
35151;BME280;55720;51.972;4.624;2022-08-02T05:21:11;101774.94;;;17.63;100.00
35151;BME280;55720;51.972;4.624;2022-08-02T05:23:36;101785.22;;;17.47;100.00
35151;BME280;55720;51.972;4.624;2022-08-02T05:26:02;101789.78;;;17.55;100.00
35151;BME280;55720;51.972;4.624;2022-08-02T05:28:27;101789.16;;;17.46;100.00
35151;BME280;55720;51.972;4.624;2022-08-02T05:30:52;101790.28;;;17.57;100.00
35151;BME280;55720;51.972;4.624;2022-08-02T05:33:18;101798.22;;;17.58;100.00
35151;BME280;55720;51.972;4.624;2022-08-02T05:35:43;101798.59;;;17.57;100.00
35151;BME280;55720;51.972;4.624;2022-08-02T05:38:09;101802.63;;;17.59;100.00
35151;BME280;55720;51.972;4.624;2022-08-02T05:40:34;101801.38;;;17.73;100.00
35151;BME280;55720;51.972;4.624;2022-08-02T05:42:59;101793.13;;;17.76;100.00
35151;BME280;55720;51.972;4.624;2022-08-02T05:45:25;101791.72;;;17.82;100.00
35151;BME280;55720;51.972;4.624;2022-08-02T05:47:51;101785.97;;;17.91;100.00
35151;BME280;55720;51.972;4.624;2022-08-02T05:50:17;101791.34;;;18.15;100.00
35151;BME280;55720;51.972;4.624;2022-08-02T05:53:16;101785.19;;;18.41;100.00
35151;BME280;55720;51.972;4.624;2022-08-02T05:55:52;101785.53;;;18.39;100.00
35151;BME280;55720;51.972;4.624;2022-08-02T05:58:28;101791.78;;;18.67;100.00
35151;BME280;55720;51.972;4.624;2022-08-02T06:00:55;101796.91;;;18.85;100.00
35151;BME280;55720;51.972;4.624;2022-08-02T06:03:35;101803.22;;;19.01;100.00
35151;BME280;55720;51.972;4.624;2022-08-02T06:08:41;101801.59;;;19.00;100.00
35151;BME280;55720;51.972;4.624;2022-08-02T06:11:13;101797.84;;;18.92;100.00
35151;BME280;55720;51.972;4.624;2022-08-02T06:13:43;101785.16;;;19.33;100.00
35151;BME280;55720;51.972;4.624;2022-08-02T06:16:09;101785.31;;;19.40;100.00
35151;BME280;55720;51.972;4.624;2022-08-02T06:18:35;101792.03;;;19.58;100.00
35151;BME280;55720;51.972;4.624;2022-08-02T06:21:02;101786.78;;;19.76;100.00
35151;BME280;55720;51.972;4.624;2022-08-02T06:23:30;101789.66;;;20.06;100.00
35151;BME280;55720;51.972;4.624;2022-08-02T06:25:57;101783.44;;;20.16;100.00
35151;BME280;55720;51.972;4.624;2022-08-02T06:28:23;101785.47;;;19.93;100.00
35151;BME280;55720;51.972;4.624;2022-08-02T06:30:49;101783.91;;;19.95;100.00
35151;BME280;55720;51.972;4.624;2022-08-02T06:33:15;101782.63;;;20.15;100.00
35151;BME280;55720;51.972;4.624;2022-08-02T06:35:51;101781.69;;;20.57;100.00
35151;BME280;55720;51.972;4.624;2022-08-02T06:38:24;101777.56;;;20.77;100.00
35151;BME280;55720;51.972;4.624;2022-08-02T06:45:53;101795.25;;;21.92;100.00
35151;BME280;55720;51.972;4.624;2022-08-02T06:48:19;101799.44;;;22.81;100.00
35151;BME280;55720;51.972;4.624;2022-08-02T06:50:44;101826.16;;;22.64;100.00
35151;BME280;55720;51.972;4.624;2022-08-02T06:53:11;101828.09;;;22.02;100.00
35151;BME280;55720;51.972;4.624;2022-08-02T06:55:36;101819.56;;;22.35;100.00
35151;BME280;55720;51.972;4.624;2022-08-02T06:58:02;101824.56;;;24.70;100.00
35151;BME280;55720;51.972;4.624;2022-08-02T07:00:28;101845.75;;;27.12;100.00
35151;BME280;55720;51.972;4.624;2022-08-02T07:02:54;101857.13;;;28.86;100.00
35151;BME280;55720;51.972;4.624;2022-08-02T07:05:19;101853.69;;;30.21;100.00
35151;BME280;55720;51.972;4.624;2022-08-02T07:07:44;101833.97;;;31.33;100.00
35151;BME280;55720;51.972;4.624;2022-08-02T07:10:11;101809.13;;;31.88;100.00
35151;BME280;55720;51.972;4.624;2022-08-02T07:12:36;101798.13;;;32.71;100.00
35151;BME280;55720;51.972;4.624;2022-08-02T07:15:04;101780.69;;;33.74;100.00
35151;BME280;55720;51.972;4.624;2022-08-02T07:17:31;101753.75;;;35.21;97.59
35151;BME280;55720;51.972;4.624;2022-08-02T07:19:57;101764.34;;;34.42;96.31
35151;BME280;55720;51.972;4.624;2022-08-02T07:22:22;101751.81;;;34.76;92.98
35151;BME280;55720;51.972;4.624;2022-08-02T07:24:49;101742.78;;;35.28;84.19
35151;BME280;55720;51.972;4.624;2022-08-02T07:27:14;101766.66;;;33.89;83.53
35151;BME280;55720;51.972;4.624;2022-08-02T07:29:40;101754.63;;;34.94;87.57
35151;BME280;55720;51.972;4.624;2022-08-02T07:32:06;101771.06;;;33.41;90.59
35151;BME280;55720;51.972;4.624;2022-08-02T07:34:31;101771.31;;;33.64;95.51
35151;BME280;55720;51.972;4.624;2022-08-02T07:36:57;101773.00;;;33.13;97.19
35151;BME280;55720;51.972;4.624;2022-08-02T07:39:22;101764.19;;;32.98;92.75
35151;BME280;55720;51.972;4.624;2022-08-02T07:41:48;101805.28;;;30.90;100.00
35151;BME280;55720;51.972;4.624;2022-08-02T07:44:17;101802.16;;;31.00;100.00
35151;BME280;55720;51.972;4.624;2022-08-02T07:46:43;101789.84;;;31.45;100.00
35151;BME280;55720;51.972;4.624;2022-08-02T07:49:09;101807.63;;;31.07;100.00
35151;BME280;55720;51.972;4.624;2022-08-02T07:51:34;101766.09;;;33.63;100.00
35151;BME280;55720;51.972;4.624;2022-08-02T07:54:01;101778.84;;;31.59;100.00
35151;BME280;55720;51.972;4.624;2022-08-02T07:56:26;101785.00;;;31.58;100.00
35151;BME280;55720;51.972;4.624;2022-08-02T07:58:52;101776.94;;;32.16;100.00
35151;BME280;55720;51.972;4.624;2022-08-02T08:01:18;101769.25;;;33.25;100.00
35151;BME280;55720;51.972;4.624;2022-08-02T08:03:43;101793.13;;;31.31;100.00
35151;BME280;55720;51.972;4.624;2022-08-02T08:06:09;101810.22;;;30.44;100.00
35151;BME280;55720;51.972;4.624;2022-08-02T08:08:34;101799.06;;;30.66;100.00
35151;BME280;55720;51.972;4.624;2022-08-02T08:10:59;101807.97;;;30.81;100.00
35151;BME280;55720;51.972;4.624;2022-08-02T08:13:25;101810.66;;;30.71;100.00
35151;BME280;55720;51.972;4.624;2022-08-02T08:15:51;101810.03;;;31.34;100.00
35151;BME280;55720;51.972;4.624;2022-08-02T08:18:16;101801.22;;;31.83;100.00
35151;BME280;55720;51.972;4.624;2022-08-02T08:20:41;101807.81;;;30.71;100.00
35151;BME280;55720;51.972;4.624;2022-08-02T08:23:07;101814.66;;;31.03;100.00
35151;BME280;55720;51.972;4.624;2022-08-02T08:25:32;101807.09;;;31.25;100.00
35151;BME280;55720;51.972;4.624;2022-08-02T08:27:57;101797.81;;;31.62;100.00
35151;BME280;55720;51.972;4.624;2022-08-02T08:30:23;101798.13;;;31.39;100.00
35151;BME280;55720;51.972;4.624;2022-08-02T08:32:49;101795.94;;;30.76;100.00
35151;BME280;55720;51.972;4.624;2022-08-02T08:35:14;101811.94;;;30.09;100.00
35151;BME280;55720;51.972;4.624;2022-08-02T08:37:40;101816.94;;;30.34;100.00
35151;BME280;55720;51.972;4.624;2022-08-02T08:40:07;101794.47;;;31.51;100.00
35151;BME280;55720;51.972;4.624;2022-08-02T08:42:35;101776.09;;;31.94;100.00
35151;BME280;55720;51.972;4.624;2022-08-02T08:45:01;101784.47;;;32.44;100.00
35151;BME280;55720;51.972;4.624;2022-08-02T08:47:35;101760.47;;;32.89;100.00
35151;BME280;55720;51.972;4.624;2022-08-02T08:50:24;101759.38;;;33.97;90.51
35151;BME280;55720;51.972;4.624;2022-08-02T08:52:53;101759.25;;;34.46;83.48
35151;BME280;55720;51.972;4.624;2022-08-02T08:55:22;101785.28;;;32.10;94.59
35151;BME280;55720;51.972;4.624;2022-08-02T08:57:51;101816.63;;;30.16;100.00
35151;BME280;55720;51.972;4.624;2022-08-02T09:00:18;101823.59;;;29.23;100.00
35151;BME280;55720;51.972;4.624;2022-08-02T09:02:44;101840.25;;;28.82;100.00
35151;BME280;55720;51.972;4.624;2022-08-02T09:05:12;101829.50;;;29.33;100.00
35151;BME280;55720;51.972;4.624;2022-08-02T09:07:38;101822.16;;;29.35;100.00
35151;BME280;55720;51.972;4.624;2022-08-02T09:10:35;101817.03;;;29.66;100.00
35151;BME280;55720;51.972;4.624;2022-08-02T09:13:13;101833.25;;;29.46;100.00
35151;BME280;55720;51.972;4.624;2022-08-02T09:15:43;101836.47;;;28.89;100.00
35151;BME280;55720;51.972;4.624;2022-08-02T09:18:09;101844.00;;;28.52;100.00
35151;BME280;55720;51.972;4.624;2022-08-02T09:20:50;101848.66;;;28.86;100.00
35151;BME280;55720;51.972;4.624;2022-08-02T09:23:16;101840.97;;;28.86;100.00
35151;BME280;55720;51.972;4.624;2022-08-02T09:25:57;101846.78;;;28.79;100.00
35151;BME280;55720;51.972;4.624;2022-08-02T09:28:32;101841.84;;;28.60;100.00
35151;BME280;55720;51.972;4.624;2022-08-02T09:31:09;101835.53;;;28.75;100.00
35151;BME280;55720;51.972;4.624;2022-08-02T09:33:36;101839.94;;;29.16;100.00
35151;BME280;55720;51.972;4.624;2022-08-02T09:38:30;101838.81;;;29.33;100.00
35151;BME280;55720;51.972;4.624;2022-08-02T09:40:55;101844.09;;;28.72;100.00
35151;BME280;55720;51.972;4.624;2022-08-02T09:43:34;101856.03;;;28.99;100.00
35151;BME280;55720;51.972;4.624;2022-08-02T09:46:17;101850.25;;;28.63;100.00
35151;BME280;55720;51.972;4.624;2022-08-02T09:48:48;101853.38;;;28.92;100.00
35151;BME280;55720;51.972;4.624;2022-08-02T09:51:22;101854.50;;;28.95;100.00
35151;BME280;55720;51.972;4.624;2022-08-02T09:53:50;101842.19;;;28.62;100.00
35151;BME280;55720;51.972;4.624;2022-08-02T09:56:17;101846.84;;;28.29;100.00
35151;BME280;55720;51.972;4.624;2022-08-02T09:58:43;101858.13;;;28.06;100.00
35151;BME280;55720;51.972;4.624;2022-08-02T10:01:09;101855.31;;;28.29;100.00
35151;BME280;55720;51.972;4.624;2022-08-02T10:03:34;101863.38;;;28.97;100.00
35151;BME280;55720;51.972;4.624;2022-08-02T10:06:00;101862.34;;;29.07;100.00
35151;BME280;55720;51.972;4.624;2022-08-02T10:08:27;101860.41;;;29.04;100.00
35151;BME280;55720;51.972;4.624;2022-08-02T10:10:54;101849.88;;;29.44;100.00
35151;BME280;55720;51.972;4.624;2022-08-02T10:15:54;101840.09;;;29.48;100.00
35151;BME280;55720;51.972;4.624;2022-08-02T10:18:19;101833.88;;;29.89;100.00
35151;BME280;55720;51.972;4.624;2022-08-02T10:20:45;101827.78;;;29.91;100.00
35151;BME280;55720;51.972;4.624;2022-08-02T10:23:12;101825.09;;;29.84;100.00
35151;BME280;55720;51.972;4.624;2022-08-02T10:25:39;101831.25;;;29.62;100.00
35151;BME280;55720;51.972;4.624;2022-08-02T10:28:07;101830.34;;;29.49;100.00
35151;BME280;55720;51.972;4.624;2022-08-02T10:30:38;101843.00;;;28.86;100.00
35151;BME280;55720;51.972;4.624;2022-08-02T10:33:06;101846.75;;;28.99;100.00
35151;BME280;55720;51.972;4.624;2022-08-02T10:35:36;101839.09;;;29.19;100.00
35151;BME280;55720;51.972;4.624;2022-08-02T10:38:05;101838.75;;;29.53;100.00
35151;BME280;55720;51.972;4.624;2022-08-02T10:40:45;101819.78;;;29.86;100.00
35151;BME280;55720;51.972;4.624;2022-08-02T10:43:12;101825.22;;;29.44;100.00
35151;BME280;55720;51.972;4.624;2022-08-02T10:51:57;101825.53;;;28.48;100.00
35151;BME280;55720;51.972;4.624;2022-08-02T10:54:39;101834.91;;;28.21;100.00
35151;BME280;55720;51.972;4.624;2022-08-02T10:59:45;101835.88;;;28.54;100.00
35151;BME280;55720;51.972;4.624;2022-08-02T11:02:11;101830.19;;;28.58;100.00
35151;BME280;55720;51.972;4.624;2022-08-02T11:07:16;101831.97;;;28.02;100.00
35151;BME280;55720;51.972;4.624;2022-08-02T11:09:46;101828.53;;;28.60;100.00
35151;BME280;55720;51.972;4.624;2022-08-02T11:12:16;101818.44;;;28.82;100.00
35151;BME280;55720;51.972;4.624;2022-08-02T11:14:57;101811.09;;;29.05;100.00
35151;BME280;55720;51.972;4.624;2022-08-02T11:17:23;101809.38;;;28.71;100.00
35151;BME280;55720;51.972;4.624;2022-08-02T11:22:33;101823.88;;;28.93;100.00
35151;BME280;55720;51.972;4.624;2022-08-02T11:27:48;101818.09;;;28.57;100.00
35151;BME280;55720;51.972;4.624;2022-08-02T11:30:14;101820.88;;;28.38;100.00
35151;BME280;55720;51.972;4.624;2022-08-02T11:32:40;101823.75;;;28.34;100.00
35151;BME280;55720;51.972;4.624;2022-08-02T11:35:06;101823.50;;;28.02;100.00
35151;BME280;55720;51.972;4.624;2022-08-02T11:37:42;101822.63;;;28.51;100.00
35151;BME280;55720;51.972;4.624;2022-08-02T11:40:16;101825.50;;;28.28;100.00
35151;BME280;55720;51.972;4.624;2022-08-02T11:42:44;101819.53;;;28.46;100.00
35151;BME280;55720;51.972;4.624;2022-08-02T11:45:14;101824.09;;;28.59;100.00
35151;BME280;55720;51.972;4.624;2022-08-02T11:47:45;101812.00;;;28.59;100.00
35151;BME280;55720;51.972;4.624;2022-08-02T11:50:11;101824.09;;;28.59;100.00
35151;BME280;55720;51.972;4.624;2022-08-02T11:52:37;101821.75;;;28.34;100.00
35151;BME280;55720;51.972;4.624;2022-08-02T11:55:04;101824.56;;;28.11;100.00
35151;BME280;55720;51.972;4.624;2022-08-02T11:57:30;101826.78;;;27.97;100.00
35151;BME280;55720;51.972;4.624;2022-08-02T11:59:56;101826.22;;;28.09;100.00
35151;BME280;55720;51.972;4.624;2022-08-02T12:02:26;101826.63;;;28.07;100.00
35151;BME280;55720;51.972;4.624;2022-08-02T12:04:56;101831.38;;;28.37;100.00
35151;BME280;55720;51.972;4.624;2022-08-02T12:07:33;101822.28;;;28.49;100.00
35151;BME280;55720;51.972;4.624;2022-08-02T12:10:01;101815.47;;;28.47;100.00
35151;BME280;55720;51.972;4.624;2022-08-02T12:12:26;101816.78;;;28.62;100.00
35151;BME280;55720;51.972;4.624;2022-08-02T12:14:52;101833.78;;;28.58;100.00
35151;BME280;55720;51.972;4.624;2022-08-02T12:17:25;101805.53;;;28.81;100.00
35151;BME280;55720;51.972;4.624;2022-08-02T12:20:10;101797.19;;;28.74;100.00
35151;BME280;55720;51.972;4.624;2022-08-02T12:22:36;101796.41;;;28.94;100.00
35151;BME280;55720;51.972;4.624;2022-08-02T12:25:22;101792.16;;;29.21;100.00
35151;BME280;55720;51.972;4.624;2022-08-02T12:27:48;101799.53;;;29.35;100.00
35151;BME280;55720;51.972;4.624;2022-08-02T12:30:17;101781.56;;;29.06;100.00
35151;BME280;55720;51.972;4.624;2022-08-02T12:32:43;101787.63;;;29.44;100.00
35151;BME280;55720;51.972;4.624;2022-08-02T12:35:17;101780.56;;;28.96;100.00
35151;BME280;55720;51.972;4.624;2022-08-02T12:37:48;101781.00;;;29.50;100.00
35151;BME280;55720;51.972;4.624;2022-08-02T12:40:28;101794.00;;;29.48;100.00
35151;BME280;55720;51.972;4.624;2022-08-02T12:42:59;101793.34;;;29.04;100.00
35151;BME280;55720;51.972;4.624;2022-08-02T12:45:29;101795.09;;;28.78;100.00
35151;BME280;55720;51.972;4.624;2022-08-02T12:47:58;101802.38;;;29.15;100.00
35151;BME280;55720;51.972;4.624;2022-08-02T12:50:33;101799.41;;;29.03;100.00
35151;BME280;55720;51.972;4.624;2022-08-02T12:53:10;101801.66;;;29.31;100.00
35151;BME280;55720;51.972;4.624;2022-08-02T12:55:49;101799.41;;;29.58;100.00
35151;BME280;55720;51.972;4.624;2022-08-02T12:58:15;101797.78;;;29.41;100.00
35151;BME280;55720;51.972;4.624;2022-08-02T13:00:41;101799.03;;;29.40;100.00
35151;BME280;55720;51.972;4.624;2022-08-02T13:03:08;101793.75;;;29.03;100.00
35151;BME280;55720;51.972;4.624;2022-08-02T13:05:34;101794.25;;;29.37;100.00
35151;BME280;55720;51.972;4.624;2022-08-02T13:08:01;101788.06;;;29.42;100.00
35151;BME280;55720;51.972;4.624;2022-08-02T13:10:27;101785.81;;;29.86;100.00
35151;BME280;55720;51.972;4.624;2022-08-02T13:12:53;101793.88;;;29.87;100.00
35151;BME280;55720;51.972;4.624;2022-08-02T13:15:19;101777.13;;;29.76;100.00
35151;BME280;55720;51.972;4.624;2022-08-02T13:17:45;101765.19;;;30.01;100.00
35151;BME280;55720;51.972;4.624;2022-08-02T13:20:12;101770.69;;;30.08;100.00
35151;BME280;55720;51.972;4.624;2022-08-02T13:22:40;101754.47;;;30.09;100.00